Time;durP1;ratioP1;P1;durP2;ratioP2;P2;SDS_P1;SDS_P2;PMS_P1;PMS_P2;Temp;Humidity;BMP_temperature;BMP_pressure;BME280_temperature;BME280_humidity;BME280_pressure;Samples;Min_cycle;Max_cycle;Signal;HPM_P1;HPM_P2
2022/02/16 00:00:14;;;;;;;;;0.75;0.75;;;;;10.54;74.71;100736.19;5070494;28;49890;-65
2022/02/16 00:02:40;;;;;;;;;0.00;0.00;;;;;10.47;75.46;100710.66;5070417;28;49919;-66
2022/02/16 00:05:13;;;;;;;;;0.25;0.25;;;;;10.51;75.41;100712.47;5070262;28;49815;-66
2022/02/16 00:07:43;;;;;;;;;0.25;0.25;;;;;10.66;75.11;100735.53;5070399;28;49785;-65
2022/02/16 00:10:10;;;;;;;;;1.00;1.00;;;;;10.46;75.38;100689.63;5070443;28;49776;-65
2022/02/16 00:12:36;;;;;;;;;2.00;1.00;;;;;10.53;74.88;100697.69;5070582;28;49788;-65
2022/02/16 00:15:02;;;;;;;;;0.00;0.00;;;;;10.65;75.00;100725.00;5070266;28;50483;-65
2022/02/16 00:17:28;;;;;;;;;0.00;0.00;;;;;10.67;74.61;100726.81;5070122;28;49939;-65
2022/02/16 00:19:53;;;;;;;;;0.00;0.00;;;;;10.66;75.41;100717.16;5070281;28;50100;-66
2022/02/16 00:22:18;;;;;;;;;0.00;0.00;;;;;10.55;75.14;100701.22;5070371;28;49964;-65
2022/02/16 00:24:44;;;;;;;;;0.00;0.00;;;;;10.65;74.91;100725.91;5070222;28;50885;-65
2022/02/16 00:27:09;;;;;;;;;1.50;0.00;;;;;10.59;75.54;100705.66;5072478;28;49685;-65
2022/02/16 00:29:34;;;;;;;;;0.00;0.00;;;;;10.61;75.31;100713.53;5073753;27;49845;-65
2022/02/16 00:32:00;;;;;;;;;0.00;0.00;;;;;10.71;74.83;100714.63;5073814;28;49864;-65
2022/02/16 00:34:25;;;;;;;;;0.00;0.00;;;;;10.31;75.52;100650.84;5055190;28;52410;-65
2022/02/16 00:36:50;;;;;;;;;0.00;0.00;;;;;10.68;75.38;100702.31;5073795;27;49697;-66
2022/02/16 00:39:16;;;;;;;;;0.50;0.50;;;;;10.51;74.96;100667.84;5073948;28;49742;-65
2022/02/16 00:41:41;;;;;;;;;0.00;0.00;;;;;10.73;74.87;100690.19;5073880;28;49782;-65
2022/02/16 00:44:07;;;;;;;;;0.00;0.00;;;;;10.66;74.81;100677.78;5073584;28;49831;-65
2022/02/16 00:46:32;;;;;;;;;0.00;0.00;;;;;10.77;75.06;100670.09;5073232;28;49784;-65
2022/02/16 00:48:57;;;;;;;;;0.25;0.25;;;;;10.67;75.34;100678.66;5073570;28;49736;-65
2022/02/16 00:51:23;;;;;;;;;0.00;0.00;;;;;10.70;75.06;100679.59;5073654;27;49585;-65
2022/02/16 00:53:48;;;;;;;;;0.25;0.00;;;;;10.71;75.58;100677.84;5073258;27;49922;-65
2022/02/16 00:56:14;;;;;;;;;0.00;0.00;;;;;10.71;75.57;100663.03;5073459;28;49679;-65
2022/02/16 00:58:39;;;;;;;;;1.00;0.00;;;;;10.67;75.05;100645.41;5073213;28;49739;-65
2022/02/16 01:01:05;;;;;;;;;0.00;0.00;;;;;10.62;75.36;100652.34;5073156;27;49810;-65
2022/02/16 01:03:30;;;;;;;;;0.00;0.00;;;;;10.67;75.94;100645.41;5073247;28;50685;-65
2022/02/16 01:05:56;;;;;;;;;0.00;0.00;;;;;10.63;75.55;100635.72;5073230;28;49805;-65
2022/02/16 01:08:21;;;;;;;;;0.00;0.00;;;;;10.54;76.04;100631.19;5073348;28;49786;-65
2022/02/16 01:10:46;;;;;;;;;0.25;0.25;;;;;10.59;76.22;100629.53;5073287;28;49891;-65
2022/02/16 01:13:12;;;;;;;;;0.00;0.00;;;;;10.55;75.50;100621.56;5073307;27;50400;-65
2022/02/16 01:15:37;;;;;;;;;0.00;0.00;;;;;10.48;75.75;100599.56;5072827;28;49776;-66
2022/02/16 01:18:03;;;;;;;;;0.00;0.00;;;;;10.66;75.60;100624.41;5055078;28;50031;-65
2022/02/16 01:20:28;;;;;;;;;0.00;0.00;;;;;10.36;75.88;100573.13;5073188;27;49722;-65
2022/02/16 01:22:54;;;;;;;;;0.00;0.00;;;;;10.45;75.83;100588.16;5054645;28;52197;-66
2022/02/16 01:25:19;;;;;;;;;0.00;0.00;;;;;10.63;76.02;100598.97;5072894;28;49843;-66
2022/02/16 01:27:45;;;;;;;;;1.00;1.00;;;;;10.49;75.97;100587.34;5072839;28;50286;-66
2022/02/16 01:30:11;;;;;;;;;0.00;0.00;;;;;10.69;75.62;100614.81;5072994;28;49815;-65
2022/02/16 01:32:37;;;;;;;;;0.00;0.00;;;;;10.65;75.73;100613.00;5072550;27;49879;-65
2022/02/16 01:35:04;;;;;;;;;0.00;0.00;;;;;10.61;75.77;100608.53;5054629;28;49855;-65
2022/02/16 01:37:29;;;;;;;;;0.00;0.00;;;;;10.48;76.18;100578.56;5071616;28;49915;-65
2022/02/16 01:39:56;;;;;;;;;0.00;0.00;;;;;10.27;76.03;100523.09;5072677;28;49802;-65
2022/02/16 01:42:22;;;;;;;;;0.00;0.00;;;;;10.60;75.52;100575.28;5072407;28;50604;-65
2022/02/16 01:44:49;;;;;;;;;0.00;0.00;;;;;10.73;75.42;100590.41;5072421;28;49808;-65
2022/02/16 01:47:14;;;;;;;;;0.00;0.00;;;;;10.74;75.94;100584.31;5072429;27;49680;-65
2022/02/16 01:49:41;;;;;;;;;0.00;0.00;;;;;10.56;75.61;100562.97;5072976;28;49900;-66
2022/02/16 01:52:08;;;;;;;;;0.00;0.00;;;;;10.73;76.35;100579.91;5072344;28;49728;-65
2022/02/16 01:54:35;;;;;;;;;0.00;0.00;;;;;10.77;75.81;100588.72;5072881;28;50083;-65
2022/02/16 01:57:01;;;;;;;;;0.00;0.00;;;;;10.78;76.11;100574.72;5072324;28;49866;-65
2022/02/16 01:59:26;;;;;;;;;0.00;0.00;;;;;10.78;75.74;100574.72;5072451;28;49746;-65
2022/02/16 02:01:52;;;;;;;;;0.00;0.00;;;;;10.63;75.89;100538.59;5071912;28;49746;-65
2022/02/16 02:04:20;;;;;;;;;0.00;0.00;;;;;10.63;76.04;100525.47;5072644;28;49845;-66
2022/02/16 02:06:45;;;;;;;;;0.00;0.00;;;;;10.67;75.80;100534.28;5072528;27;49882;-65
2022/02/16 02:09:12;;;;;;;;;0.00;0.00;;;;;10.76;75.78;100542.31;5072176;27;49694;-65
2022/02/16 02:11:38;;;;;;;;;0.00;0.00;;;;;10.65;76.10;100526.38;5071839;27;49661;-65
2022/02/16 02:14:06;;;;;;;;;0.00;0.00;;;;;10.73;76.20;100545.78;5072063;28;49722;-65
2022/02/16 02:16:32;;;;;;;;;0.25;0.00;;;;;10.76;76.57;100544.94;5071917;27;49728;-65
2022/02/16 02:18:59;;;;;;;;;0.00;0.00;;;;;10.77;76.61;100533.56;5072287;28;49878;-65
2022/02/16 02:21:24;;;;;;;;;0.00;0.00;;;;;10.63;76.39;100500.97;5071835;28;51618;-66
2022/02/16 02:23:51;;;;;;;;;0.00;0.00;;;;;10.80;76.63;100531.88;5071780;28;49791;-66
2022/02/16 02:26:17;;;;;;;;;0.00;0.00;;;;;10.62;76.17;100481.72;5071605;27;49716;-65
2022/02/16 02:28:43;;;;;;;;;0.00;0.00;;;;;10.76;76.57;100510.81;5071891;28;49592;-65
2022/02/16 02:31:08;;;;;;;;;0.00;0.00;;;;;10.51;76.73;100478.88;5071723;28;49803;-66
2022/02/16 02:33:34;;;;;;;;;0.00;0.00;;;;;10.58;76.45;100469.38;5071853;28;49815;-65
2022/02/16 02:36:00;;;;;;;;;0.00;0.00;;;;;10.71;77.10;100488.81;5072018;28;49663;-65
2022/02/16 02:38:26;;;;;;;;;0.00;0.00;;;;;10.82;76.66;100497.78;5071709;28;49996;-65
2022/02/16 02:41:03;;;;;;;;;0.00;0.00;;;;;10.80;76.58;100484.59;5071408;27;50537;-65
2022/02/16 02:43:30;;;;;;;;;0.00;0.00;;;;;10.83;76.73;100495.19;5071677;28;49809;-66
2022/02/16 02:45:56;;;;;;;;;0.00;0.00;;;;;10.82;77.19;100496.03;5064903;28;49803;-65
2022/02/16 02:48:23;;;;;;;;;1.00;0.00;;;;;10.82;76.99;100493.41;5071627;28;49984;-65
2022/02/16 02:50:50;;;;;;;;;0.00;0.00;;;;;10.83;76.80;100484.66;5071070;28;50965;-65
2022/02/16 02:53:16;;;;;;;;;1.00;0.00;;;;;10.64;77.65;100445.88;5071337;28;49735;-65
2022/02/16 02:55:41;;;;;;;;;0.00;0.00;;;;;10.84;76.78;100470.69;5071548;28;49851;-65
2022/02/16 02:58:07;;;;;;;;;0.00;0.00;;;;;10.80;76.98;100471.47;5071561;28;49798;-65
2022/02/16 03:00:32;;;;;;;;;0.00;0.00;;;;;10.85;76.86;100472.44;5071097;28;50377;-64
2022/02/16 03:02:57;;;;;;;;;0.00;0.00;;;;;10.87;77.25;100475.09;5071304;28;49805;-64
2022/02/16 03:05:23;;;;;;;;;0.00;0.00;;;;;10.83;76.78;100447.91;5071589;28;49887;-64
2022/02/16 03:07:48;;;;;;;;;0.00;0.00;;;;;10.91;77.13;100452.41;5071557;28;50029;-64
2022/02/16 03:10:14;;;;;;;;;0.00;0.00;;;;;10.70;77.41;100419.69;5071242;28;49720;-65
2022/02/16 03:12:39;;;;;;;;;0.00;0.00;;;;;10.92;76.73;100436.66;5071324;28;49853;-66
2022/02/16 03:15:05;;;;;;;;;0.00;0.00;;;;;10.62;76.93;100375.84;5071353;28;49711;-65
2022/02/16 03:17:30;;;;;;;;;0.00;0.00;;;;;10.89;77.49;100432.22;5071060;28;50104;-65
2022/02/16 03:19:56;;;;;;;;;0.00;0.00;;;;;10.79;77.86;100403.19;5070915;28;50435;-65
2022/02/16 03:22:22;;;;;;;;;0.00;0.00;;;;;10.93;77.46;100422.66;5071044;28;49794;-65
2022/02/16 03:24:47;;;;;;;;;0.00;0.00;;;;;10.90;77.10;100406.84;5071221;28;49714;-65
2022/02/16 03:27:13;;;;;;;;;0.00;0.00;;;;;11.01;77.34;100414.91;5071226;28;49725;-65
2022/02/16 03:29:38;;;;;;;;;0.00;0.00;;;;;10.95;77.44;100405.19;5070591;28;49839;-65
2022/02/16 03:32:04;;;;;;;;;0.00;0.00;;;;;10.95;77.41;100409.53;5070601;28;49611;-65
2022/02/16 03:34:29;;;;;;;;;0.00;0.00;;;;;10.96;77.62;100400.81;5070837;28;49755;-65
2022/02/16 03:36:55;;;;;;;;;0.00;0.00;;;;;10.84;77.86;100380.50;5052835;28;49979;-65
2022/02/16 03:39:21;;;;;;;;;0.00;0.00;;;;;11.00;77.97;100395.63;5070943;28;49709;-65
2022/02/16 03:41:46;;;;;;;;;0.00;0.00;;;;;10.85;78.00;100366.53;5071196;28;49778;-65
2022/02/16 03:44:12;;;;;;;;;0.00;0.00;;;;;10.97;77.79;100394.69;5070889;28;49689;-65
2022/02/16 03:46:37;;;;;;;;;0.00;0.00;;;;;11.05;78.03;100398.28;5070536;28;49923;-65
2022/02/16 03:49:02;;;;;;;;;0.00;0.00;;;;;11.06;78.11;100390.44;5070478;28;50957;-65
2022/02/16 03:51:28;;;;;;;;;0.00;0.00;;;;;11.05;77.75;100378.16;5070811;27;49848;-65
2022/02/16 03:53:53;;;;;;;;;0.00;0.00;;;;;10.82;77.69;100341.13;5070656;27;50065;-65
2022/02/16 03:56:19;;;;;;;;;0.00;0.00;;;;;11.09;77.92;100373.81;5070748;28;50545;-65
2022/02/16 03:58:44;;;;;;;;;0.00;0.00;;;;;11.09;78.03;100382.56;5051766;28;50046;-65
2022/02/16 04:01:09;;;;;;;;;0.00;0.00;;;;;10.68;78.37;100320.78;5069419;28;49815;-65
2022/02/16 04:03:35;;;;;;;;;0.00;0.00;;;;;11.05;77.80;100367.66;5070510;28;49835;-65
2022/02/16 04:06:00;;;;;;;;;0.00;0.00;;;;;11.09;77.86;100374.69;5070809;28;49574;-65
2022/02/16 04:08:25;;;;;;;;;0.00;0.00;;;;;10.98;78.02;100351.78;5070328;28;50553;-65
2022/02/16 04:10:51;;;;;;;;;0.00;0.00;;;;;10.98;78.04;100350.03;5070483;28;49615;-65
2022/02/16 04:13:16;;;;;;;;;0.00;0.00;;;;;11.08;77.85;100366.81;5070760;28;49838;-65
2022/02/16 04:15:41;;;;;;;;;0.00;0.00;;;;;11.10;78.04;100360.72;5070443;28;49737;-65
2022/02/16 04:18:06;;;;;;;;;0.00;0.00;;;;;11.17;77.91;100370.44;5070230;28;50247;-65
2022/02/16 04:20:32;;;;;;;;;0.00;0.00;;;;;11.13;77.84;100360.75;5070575;27;50058;-66
2022/02/16 04:22:57;;;;;;;;;0.00;0.00;;;;;11.09;77.90;100353.69;5070339;28;49945;-65
2022/02/16 04:25:23;;;;;;;;;0.00;0.00;;;;;11.22;78.20;100374.88;5070585;28;49672;-65
2022/02/16 04:27:48;;;;;;;;;0.00;0.00;;;;;11.20;78.62;100369.59;5069956;28;50456;-65
2022/02/16 04:30:14;;;;;;;;;0.00;0.00;;;;;11.23;78.24;100364.38;5070195;27;49778;-64
2022/02/16 04:32:39;;;;;;;;;0.00;0.00;;;;;11.27;78.44;100360.03;5069958;27;49765;-65
2022/02/16 04:35:06;;;;;;;;;0.00;0.00;;;;;11.10;78.36;100323.06;5070325;28;49751;-65
2022/02/16 04:37:32;;;;;;;;;0.00;0.00;;;;;11.26;78.22;100356.50;5069885;28;49765;-65
2022/02/16 04:39:57;;;;;;;;;0.00;0.00;;;;;11.29;78.30;100351.31;5070119;28;49804;-64
2022/02/16 04:42:24;;;;;;;;;0.00;0.00;;;;;11.33;78.20;100349.59;5070115;28;49636;-65
2022/02/16 04:44:50;;;;;;;;;0.00;0.00;;;;;11.37;77.82;100343.50;5070251;27;50029;-65
2022/02/16 04:47:15;;;;;;;;;0.00;0.00;;;;;11.32;78.27;100332.94;5068968;28;49724;-64
2022/02/16 04:49:40;;;;;;;;;0.00;0.00;;;;;11.36;78.23;100342.63;5070077;27;49830;-65
2022/02/16 04:52:07;;;;;;;;;0.00;0.00;;;;;11.16;78.32;100310.00;5070277;28;50117;-65
2022/02/16 04:54:33;;;;;;;;;0.00;0.00;;;;;11.28;78.02;100312.75;5070296;28;49826;-65
2022/02/16 04:56:58;;;;;;;;;0.00;0.00;;;;;11.43;78.13;100336.56;5069726;27;50486;-64
2022/02/16 04:59:23;;;;;;;;;0.00;0.00;;;;;11.26;78.31;100300.47;5069908;28;49753;-66
2022/02/16 05:01:49;;;;;;;;;0.00;0.00;;;;;11.42;78.82;100328.66;5069542;28;49651;-64
2022/02/16 05:04:14;;;;;;;;;0.00;0.00;;;;;11.43;78.35;100328.69;5069991;28;49968;-65
2022/02/16 05:06:41;;;;;;;;;0.00;0.00;;;;;11.42;78.53;100337.44;5068659;28;49700;-64
2022/02/16 05:09:09;;;;;;;;;0.00;0.00;;;;;11.46;78.44;100348.84;5069713;27;49655;-64
2022/02/16 05:11:35;;;;;;;;;0.00;0.00;;;;;11.50;78.77;100360.31;5070025;28;49970;-65
2022/02/16 05:14:00;;;;;;;;;0.00;0.00;;;;;11.40;78.60;100335.66;5073189;27;49937;-66
2022/02/16 05:16:26;;;;;;;;;0.00;0.00;;;;;11.50;78.69;100347.16;5072752;28;49749;-65
2022/02/16 05:18:54;;;;;;;;;0.00;0.00;;;;;11.44;78.90;100329.56;5054673;27;50014;-65
2022/02/16 05:21:19;;;;;;;;;0.00;0.00;;;;;11.50;78.65;100340.16;5073181;27;49776;-65
2022/02/16 05:23:45;;;;;;;;;0.00;0.00;;;;;11.42;78.84;100336.56;5073116;28;49672;-65
2022/02/16 05:26:10;;;;;;;;;0.00;0.00;;;;;11.50;78.93;100345.41;5072667;28;50351;-65
2022/02/16 05:28:35;;;;;;;;;0.00;0.00;;;;;11.50;79.26;100336.66;5072702;28;49731;-65
2022/02/16 05:31:01;;;;;;;;;0.00;0.00;;;;;11.52;79.10;100329.66;5072490;28;49988;-67
2022/02/16 05:33:26;;;;;;;;;0.00;0.00;;;;;11.54;79.13;100335.78;5073041;28;49762;-63
2022/02/16 05:35:52;;;;;;;;;0.00;0.00;;;;;11.52;78.89;100320.00;5072467;28;50114;-64
2022/02/16 05:38:19;;;;;;;;;0.00;0.00;;;;;11.40;79.09;100312.00;5072698;28;49834;-65
2022/02/16 05:40:44;;;;;;;;;0.00;0.00;;;;;11.48;79.59;100312.94;5072638;28;49810;-64
2022/02/16 05:43:13;;;;;;;;;0.00;0.00;;;;;11.59;79.09;100335.00;5073051;28;49706;-65
2022/02/16 05:45:39;;;;;;;;;0.00;0.00;;;;;11.43;79.06;100306.78;5072733;28;50635;-63
2022/02/16 05:48:05;;;;;;;;;0.00;0.00;;;;;11.70;79.13;100338.59;5072531;28;49744;-63
2022/02/16 05:50:31;;;;;;;;;0.00;0.00;;;;;11.33;78.98;100270.75;5072634;27;49902;-67
2022/02/16 05:52:56;;;;;;;;;0.00;0.00;;;;;11.67;78.65;100338.53;5073075;27;49996;-67
2022/02/16 05:55:21;;;;;;;;;0.00;0.00;;;;;11.76;78.87;100343.91;5072309;28;50374;-69
2022/02/16 05:57:47;;;;;;;;;0.00;0.00;;;;;11.51;78.77;100299.84;5051230;28;49973;-68
2022/02/16 06:00:14;;;;;;;;;0.00;0.00;;;;;11.78;78.93;100336.03;5068975;28;50899;-68
2022/02/16 06:02:40;;;;;;;;;0.00;0.00;;;;;11.41;78.67;100290.13;5072430;27;49694;-68
2022/02/16 06:05:06;;;;;;;;;0.00;0.00;;;;;11.80;78.92;100351.88;5071424;28;49972;-67
2022/02/16 06:07:31;;;;;;;;;0.00;0.00;;;;;11.73;78.48;100340.38;5072202;28;50260;-65
2022/02/16 06:09:56;;;;;;;;;1.00;0.00;;;;;11.70;78.89;100325.44;5072329;27;49735;-67
2022/02/16 06:12:21;;;;;;;;;0.00;0.00;;;;;11.85;78.54;100348.41;5072365;28;49818;-67
2022/02/16 06:14:47;;;;;;;;;0.00;0.00;;;;;11.81;78.65;100348.38;5072089;27;49849;-68
2022/02/16 06:17:12;;;;;;;;;0.00;0.00;;;;;11.87;78.77;100359.84;5053690;28;49931;-68
2022/02/16 06:19:37;;;;;;;;;0.00;0.00;;;;;11.87;78.83;100335.25;5072185;28;49753;-68
2022/02/16 06:22:03;;;;;;;;;0.00;0.00;;;;;11.71;78.58;100306.16;5072052;28;49783;-68
2022/02/16 06:24:29;;;;;;;;;0.00;0.00;;;;;11.31;78.49;100244.47;5071258;28;50616;-68
2022/02/16 06:26:55;;;;;;;;;0.00;0.00;;;;;11.95;78.65;100336.19;5071942;28;49845;-68
2022/02/16 06:29:21;;;;;;;;;0.00;0.00;;;;;11.99;78.67;100338.00;5053518;28;49606;-68
2022/02/16 06:31:46;;;;;;;;;0.00;0.00;;;;;12.03;78.46;100350.31;5071905;27;49801;-68
2022/02/16 06:34:12;;;;;;;;;0.00;0.00;;;;;12.04;78.45;100338.91;5071525;28;50897;-68
2022/02/16 06:36:37;;;;;;;;;0.00;0.00;;;;;12.13;78.39;100353.91;5071760;28;49729;-67
2022/02/16 06:39:02;;;;;;;;;0.00;0.00;;;;;12.12;78.51;100354.75;5071968;28;50037;-68
2022/02/16 06:41:28;;;;;;;;;0.00;0.00;;;;;11.56;78.45;100256.06;5071717;27;49804;-67
2022/02/16 06:43:55;;;;;;;;;0.50;0.00;;;;;12.04;78.35;100341.53;5071360;28;51165;-69
2022/02/16 06:46:20;;;;;;;;;1.00;0.00;;;;;11.96;78.70;100333.56;5071327;27;50079;-68
2022/02/16 06:48:46;;;;;;;;;0.00;0.00;;;;;11.97;78.49;100331.84;5071674;28;49756;-68
2022/02/16 06:51:11;;;;;;;;;0.00;0.00;;;;;12.21;78.59;100378.53;5072078;28;50026;-68
2022/02/16 06:53:36;;;;;;;;;0.00;0.00;;;;;12.16;78.50;100362.72;5071396;27;49770;-68
2022/02/16 06:56:02;;;;;;;;;0.00;0.00;;;;;12.10;78.31;100374.94;5053026;28;49834;-69
2022/02/16 06:58:29;;;;;;;;;0.00;0.00;;;;;11.74;78.44;100314.06;5071489;27;49842;-68
2022/02/16 07:00:54;;;;;;;;;1.00;0.00;;;;;12.09;78.30;100376.69;5071362;28;49786;-68
2022/02/16 07:03:20;;;;;;;;;0.00;0.00;;;;;12.29;78.45;100382.97;5071100;27;50538;-68
2022/02/16 07:05:45;;;;;;;;;0.75;0.00;;;;;12.11;78.44;100345.13;5071497;28;49773;-68
2022/02/16 07:08:11;;;;;;;;;0.00;0.00;;;;;11.95;78.18;100320.41;5071379;28;49800;-68
2022/02/16 07:10:36;;;;;;;;;0.00;0.00;;;;;12.33;78.25;100394.41;5071548;28;49829;-68
2022/02/16 07:13:02;;;;;;;;;0.00;0.00;;;;;12.07;78.10;100354.75;5070815;28;51280;-68
2022/02/16 07:15:27;;;;;;;;;0.00;0.00;;;;;12.32;78.03;100397.91;5052816;28;49946;-68
2022/02/16 07:17:54;;;;;;;;;0.00;0.00;;;;;12.42;78.35;100407.63;5071283;28;49620;-67
2022/02/16 07:20:19;;;;;;;;;0.00;0.00;;;;;12.25;77.87;100369.78;5052970;28;49662;-68
2022/02/16 07:22:46;;;;;;;;;0.00;0.00;;;;;12.02;77.91;100348.53;5052499;28;50795;-67
2022/02/16 07:25:14;;;;;;;;;0.00;0.00;;;;;12.49;77.85;100398.91;5071064;28;49791;-63
2022/02/16 07:27:39;;;;;;;;;0.00;0.00;;;;;12.38;77.88;100381.28;5071061;28;49780;-66
2022/02/16 07:30:08;;;;;;;;;0.00;0.00;;;;;12.49;77.88;100391.03;5070858;27;49741;-70
2022/02/16 07:32:37;;;;;;;;;0.00;0.00;;;;;12.40;77.66;100362.00;5070660;28;49922;-69
2022/02/16 07:35:03;;;;;;;;;0.00;0.00;;;;;12.62;77.35;100391.97;5052028;28;49709;-69
2022/02/16 07:37:28;;;;;;;;;0.00;0.00;;;;;12.53;77.70;100387.53;5069970;28;49879;-69
2022/02/16 07:39:53;;;;;;;;;0.00;0.00;;;;;12.48;77.32;100356.78;5071179;28;50102;-69
2022/02/16 07:42:19;;;;;;;;;0.00;0.00;;;;;12.60;77.44;100372.66;5070484;28;50485;-68
2022/02/16 07:44:45;;;;;;;;;0.75;0.00;;;;;12.77;77.22;100402.63;5070880;28;49665;-68
2022/02/16 07:47:11;;;;;;;;;0.00;0.00;;;;;12.78;77.09;100406.13;5070446;27;49740;-68
2022/02/16 07:49:37;;;;;;;;;0.00;0.00;;;;;12.63;77.18;100387.59;5068932;28;49837;-68
2022/02/16 07:52:03;;;;;;;;;0.00;0.00;;;;;12.83;76.72;100421.06;5070066;27;51066;-68
2022/02/16 07:54:30;;;;;;;;;0.00;0.00;;;;;12.87;76.62;100414.09;5070370;27;49840;-68
2022/02/16 07:56:56;;;;;;;;;0.00;0.00;;;;;12.89;76.33;100404.44;5070758;27;49612;-68
2022/02/16 07:59:21;;;;;;;;;0.00;0.00;;;;;12.80;76.95;100407.91;5071641;27;50205;-70
2022/02/16 08:01:47;;;;;;;;;0.00;0.00;;;;;12.95;76.65;100416.78;5070244;28;50395;-63
2022/02/16 08:04:18;;;;;;;;;0.00;0.00;;;;;12.97;76.50;100417.66;5070694;28;49924;-61
2022/02/16 08:06:46;;;;;;;;;0.00;0.00;;;;;12.87;76.77;100380.72;5070621;27;49721;-63
2022/02/16 08:09:12;;;;;;;;;1.75;0.00;;;;;13.06;76.74;100409.81;5070538;28;49774;-62
2022/02/16 08:11:42;;;;;;;;;1.00;0.00;;;;;13.07;76.56;100395.75;5070075;28;50735;-64
2022/02/16 08:14:07;;;;;;;;;0.00;0.00;;;;;13.19;76.41;100414.28;5070328;28;49762;-64
2022/02/16 08:16:34;;;;;;;;;0.00;0.00;;;;;13.07;75.96;100386.09;5069985;28;49889;-65
2022/02/16 08:19:02;;;;;;;;;0.50;0.50;;;;;13.05;76.18;100394.88;5052122;28;49898;-65
2022/02/16 08:21:27;;;;;;;;;0.00;0.00;;;;;13.29;75.72;100431.91;5069804;28;49840;-66
2022/02/16 08:23:52;;;;;;;;;0.00;0.00;;;;;13.13;75.69;100416.88;5070152;28;49862;-66
2022/02/16 08:26:18;;;;;;;;;0.00;0.00;;;;;13.28;76.02;100431.91;5069902;27;49576;-66
2022/02/16 08:28:44;;;;;;;;;0.00;0.00;;;;;13.30;75.94;100424.88;5070338;27;49936;-66
2022/02/16 08:31:10;;;;;;;;;0.00;0.00;;;;;13.06;75.80;100384.34;5069966;28;50427;-66
2022/02/16 08:33:35;;;;;;;;;0.00;0.00;;;;;12.78;76.47;100335.91;5063573;28;49857;-65
2022/02/16 08:36:01;;;;;;;;;0.00;0.00;;;;;13.27;76.46;100415.22;5069958;27;49950;-66
2022/02/16 08:38:27;;;;;;;;;0.00;0.00;;;;;13.41;75.91;100433.72;5070240;27;49968;-66
2022/02/16 08:40:52;;;;;;;;;0.00;0.00;;;;;13.43;75.76;100422.31;5069512;28;50894;-67
2022/02/16 08:43:17;;;;;;;;;0.00;0.00;;;;;12.67;75.78;100269.13;5069922;27;50138;-66
2022/02/16 08:45:43;;;;;;;;;0.00;0.00;;;;;13.37;75.75;100361.63;5069792;28;49838;-66
2022/02/16 08:48:08;;;;;;;;;0.00;0.00;;;;;13.29;75.13;100338.75;5072353;28;49824;-66
2022/02/16 08:50:34;;;;;;;;;0.00;0.00;;;;;13.72;74.78;100422.41;5071518;28;50501;-66
2022/02/16 08:53:00;;;;;;;;;0.00;0.00;;;;;13.89;74.65;100432.09;5073090;27;50073;-66
2022/02/16 08:55:26;;;;;;;;;0.00;0.00;;;;;13.95;74.95;100429.47;5073480;28;50007;-66
2022/02/16 08:57:51;;;;;;;;;0.00;0.00;;;;;13.72;73.88;100376.69;5073221;28;49743;-65
2022/02/16 09:00:17;;;;;;;;;0.00;0.00;;;;;14.08;73.78;100431.25;5072050;28;49983;-65
2022/02/16 09:02:42;;;;;;;;;0.00;0.00;;;;;14.12;73.64;100434.78;5073043;28;49976;-66
2022/02/16 09:05:08;;;;;;;;;0.00;0.00;;;;;13.61;73.44;100357.31;5073368;28;49813;-66
2022/02/16 09:07:33;;;;;;;;;0.00;0.00;;;;;14.16;73.31;100428.63;5073088;28;49724;-67
2022/02/16 09:10:02;;;;;;;;;0.00;0.00;;;;;13.62;72.87;100362.59;5072900;27;49695;-66
2022/02/16 09:12:28;;;;;;;;;0.00;0.00;;;;;14.19;72.89;100426.88;5073099;28;49809;-65
2022/02/16 09:14:55;;;;;;;;;0.00;0.00;;;;;14.00;72.94;100402.22;5073208;27;49979;-67
2022/02/16 09:17:20;;;;;;;;;1.00;0.00;;;;;13.98;72.96;100427.72;5072890;28;49778;-65
2022/02/16 09:19:46;;;;;;;;;1.00;0.25;;;;;14.18;73.45;100454.13;5072982;28;50503;-66
2022/02/16 09:22:14;;;;;;;;;0.00;0.00;;;;;14.17;73.22;100449.75;5072512;28;49883;-66
2022/02/16 09:24:40;;;;;;;;;1.00;1.00;;;;;13.83;72.89;100400.44;5073025;27;49899;-66
2022/02/16 09:27:05;;;;;;;;;1.00;1.00;;;;;14.02;73.23;100431.25;5073192;28;49831;-65
2022/02/16 09:29:31;;;;;;;;;0.00;0.00;;;;;14.17;72.99;100470.84;5072277;27;50959;-65
2022/02/16 09:31:56;;;;;;;;;2.75;0.00;;;;;14.19;73.28;100481.44;5072449;27;49743;-65
2022/02/16 09:34:22;;;;;;;;;1.00;1.00;;;;;14.27;73.19;100492.88;5072818;28;49750;-65
2022/02/16 09:36:48;;;;;;;;;0.00;0.00;;;;;14.29;72.90;100489.38;5072846;27;50492;-65
2022/02/16 09:39:14;;;;;;;;;0.00;0.00;;;;;14.22;72.61;100492.00;5071274;28;51319;-65
2022/02/16 09:41:43;;;;;;;;;0.00;0.00;;;;;14.25;72.42;100481.44;5072444;28;49914;-65
2022/02/16 09:44:12;;;;;;;;;1.00;0.00;;;;;14.18;72.38;100462.06;5072577;28;49920;-65
2022/02/16 09:46:39;;;;;;;;;0.00;0.00;;;;;14.26;72.34;100486.72;5072483;27;49914;-65
2022/02/16 09:49:05;;;;;;;;;0.00;0.00;;;;;13.97;72.57;100435.63;5072061;27;50631;-65
2022/02/16 09:51:30;;;;;;;;;0.50;0.50;;;;;14.26;72.91;100468.22;5073758;27;49866;-65
2022/02/16 09:53:55;;;;;;;;;0.00;0.00;;;;;14.02;72.44;100418.94;5072253;27;50057;-66
2022/02/16 09:56:21;;;;;;;;;2.00;2.00;;;;;14.36;72.28;100466.47;5072550;28;49686;-65
2022/02/16 09:58:46;;;;;;;;;0.25;0.25;;;;;14.44;72.04;100467.38;5059266;28;51377;-65
2022/02/16 10:01:13;;;;;;;;;0.50;0.50;;;;;14.46;72.61;100459.47;5072508;27;49942;-65
2022/02/16 10:03:56;;;;;;;;;0.00;0.00;;;;;14.45;72.19;100463.00;5071913;28;49598;-67
2022/02/16 10:06:38;;;;;;;;;0.00;0.00;;;;;14.67;71.83;100472.72;5066051;28;49748;-65
2022/02/16 10:09:05;;;;;;;;;0.00;0.00;;;;;14.71;71.87;100466.53;5072042;28;51228;-68
2022/02/16 10:11:31;;;;;;;;;0.00;0.00;;;;;14.60;71.23;100426.91;5071888;28;49933;-66
2022/02/16 10:14:19;;;;;;;;;0.00;0.00;;;;;14.95;71.06;100475.28;5072116;28;50100;-66
2022/02/16 10:16:44;;;;;;;;;1.25;1.00;;;;;14.21;70.23;100334.47;5071790;27;49989;-66
2022/02/16 10:19:10;;;;;;;;;0.00;0.00;;;;;14.54;69.97;100362.63;5071812;28;49619;-66
2022/02/16 10:21:35;;;;;;;;;0.00;0.00;;;;;15.15;69.64;100442.66;5071942;27;49596;-66
2022/02/16 10:24:01;;;;;;;;;0.25;0.00;;;;;14.78;69.37;100351.16;5071436;28;49753;-67
2022/02/16 10:26:51;;;;;;;;;0.00;0.00;;;;;15.48;69.25;100458.41;5072216;27;49739;-66
2022/02/16 10:29:19;;;;;;;;;0.00;0.00;;;;;15.40;69.58;100442.56;5053240;28;50389;-66
2022/02/16 10:31:44;;;;;;;;;1.50;0.00;;;;;15.50;68.92;100475.16;5071456;28;49954;-67
2022/02/16 10:34:10;;;;;;;;;0.50;0.50;;;;;15.66;68.88;100474.25;5053477;28;50173;-67
2022/02/16 10:36:36;;;;;;;;;0.00;0.00;;;;;15.25;68.30;100411.78;5072039;27;49767;-66
2022/02/16 10:39:10;;;;;;;;;0.00;0.00;;;;;15.74;68.87;100477.75;5071238;28;49975;-66
2022/02/16 10:41:50;;;;;;;;;0.50;0.50;;;;;15.13;69.02;100374.78;5053338;28;50100;-66
2022/02/16 10:44:19;;;;;;;;;1.00;0.00;;;;;15.72;69.21;100471.56;5071446;27;49693;-66
2022/02/16 10:46:56;;;;;;;;;0.00;0.00;;;;;15.75;69.08;100479.50;5074090;28;49686;-66
2022/02/16 10:49:22;;;;;;;;;0.00;0.00;;;;;15.14;69.53;100403.88;5053081;28;51809;-66
2022/02/16 10:52:04;;;;;;;;;0.75;0.00;;;;;15.56;69.91;100453.97;5071226;28;49661;-67
2022/02/16 10:54:29;;;;;;;;;0.00;0.00;;;;;15.38;70.42;100421.41;5071248;27;50006;-67
2022/02/16 10:56:55;;;;;;;;;0.00;0.00;;;;;15.80;69.75;100482.09;5071488;27;49672;-66
2022/02/16 10:59:20;;;;;;;;;0.00;0.00;;;;;15.95;70.00;100484.69;5073963;27;49777;-66
2022/02/16 11:01:45;;;;;;;;;0.00;0.00;;;;;15.60;69.12;100426.59;5074944;27;49863;-67
2022/02/16 11:04:13;;;;;;;;;0.00;0.00;;;;;15.82;69.38;100472.38;5076343;27;49770;-66
2022/02/16 11:06:47;;;;;;;;;0.00;0.00;;;;;15.82;69.31;100465.31;5071385;27;50065;-66
2022/02/16 11:09:22;;;;;;;;;2.00;1.25;;;;;15.91;68.96;100481.16;5079868;27;50477;-66
2022/02/16 11:11:49;;;;;;;;;0.00;0.00;;;;;15.98;69.04;100493.47;5073794;27;49751;-65
2022/02/16 11:14:16;;;;;;;;;0.00;0.00;;;;;15.62;69.24;100461.91;5081299;27;50073;-66
2022/02/16 11:16:46;;;;;;;;;0.00;0.00;;;;;15.97;69.22;100481.13;5089853;27;49568;-76
2022/02/16 11:19:40;;;;;;;;;0.00;0.00;;;;;16.06;68.90;100496.09;5080963;28;49659;-66